Time;durP1;ratioP1;P1;durP2;ratioP2;P2;SDS_P1;SDS_P2;PMS_P1;PMS_P2;Temp;Humidity;BMP_temperature;BMP_pressure;BME280_temperature;BME280_humidity;BME280_pressure;Samples;Min_cycle;Max_cycle;Signal;HPM_P1;HPM_P2
2022/09/15 00:01:21;;;;;;;4.38;2.50;;;13.50;99.90;;;;;;5067085;28;20547;-73
2022/09/15 00:03:47;;;;;;;4.75;2.42;;;13.60;99.90;;;;;;5067447;28;20045;-73
2022/09/15 00:06:13;;;;;;;2.33;2.20;;;13.60;99.90;;;;;;5064183;28;20145;-73
2022/09/15 00:08:39;;;;;;;4.10;2.70;;;13.60;99.90;;;;;;5066482;28;20123;-73
2022/09/15 00:11:19;;;;;;;3.80;2.60;;;13.60;99.90;;;;;;5065204;28;20131;-73
2022/09/15 00:13:45;;;;;;;3.15;2.30;;;13.70;99.90;;;;;;5068697;28;20036;-74
2022/09/15 00:16:12;;;;;;;4.28;2.13;;;13.70;99.90;;;;;;5065322;28;20491;-73
2022/09/15 00:18:38;;;;;;;4.28;2.30;;;13.70;99.90;;;;;;5070909;28;20115;-72
2022/09/15 00:21:06;;;;;;;4.90;2.10;;;13.70;99.90;;;;;;5050567;28;20044;-72
2022/09/15 00:23:32;;;;;;;4.03;2.50;;;13.70;99.90;;;;;;5066209;28;20047;-73
2022/09/15 00:25:57;;;;;;;3.22;2.30;;;13.70;99.90;;;;;;5066291;28;20037;-73
2022/09/15 00:28:23;;;;;;;4.13;2.97;;;13.70;99.90;;;;;;5064813;28;20048;-73
2022/09/15 00:30:51;;;;;;;3.75;2.60;;;13.70;99.90;;;;;;5060171;28;20068;-74
2022/09/15 00:33:19;;;;;;;3.55;2.63;;;13.70;99.90;;;;;;5062438;28;20179;-75
2022/09/15 00:35:46;;;;;;;3.78;2.55;;;13.70;99.90;;;;;;5064609;28;20033;-75
2022/09/15 00:38:13;;;;;;;3.80;2.58;;;13.70;99.90;;;;;;5065693;28;20127;-74
2022/09/15 00:40:47;;;;;;;4.87;2.90;;;13.70;99.90;;;;;;5066680;28;20049;-75
2022/09/15 00:43:15;;;;;;;4.25;2.63;;;13.70;99.90;;;;;;5063568;28;20059;-74
2022/09/15 00:45:40;;;;;;;2.85;2.38;;;13.70;99.90;;;;;;5070881;28;20475;-75
2022/09/15 00:48:12;;;;;;;4.85;2.80;;;13.80;99.90;;;;;;5062948;28;20094;-75
2022/09/15 00:50:40;;;;;;;4.43;3.00;;;13.70;99.90;;;;;;5068841;28;20399;-75
2022/09/15 00:53:07;;;;;;;5.57;2.85;;;13.80;99.90;;;;;;5066011;28;20103;-75
2022/09/15 00:55:40;;;;;;;3.40;3.10;;;13.80;99.90;;;;;;5060873;28;20052;-74
2022/09/15 00:58:18;;;;;;;3.33;3.03;;;13.90;99.90;;;;;;5063165;28;20055;-75
2022/09/15 01:00:51;;;;;;;5.45;2.85;;;13.90;99.90;;;;;;5065904;28;20036;-76
2022/09/15 01:03:16;;;;;;;5.45;3.38;;;13.90;99.90;;;;;;5065403;28;20543;-75
2022/09/15 01:05:47;;;;;;;3.83;3.30;;;13.80;99.90;;;;;;5065681;28;20136;-75
2022/09/15 01:08:44;;;;;;;6.78;3.70;;;13.80;99.90;;;;;;5065794;28;20102;-73
2022/09/15 01:11:10;;;;;;;5.53;3.83;;;13.70;99.90;;;;;;5057440;28;20049;-73
2022/09/15 01:13:36;;;;;;;4.13;3.35;;;13.60;99.90;;;;;;5047920;28;20490;-73
2022/09/15 01:16:31;;;;;;;6.18;4.20;;;13.60;99.90;;;;;;5067239;28;20051;-73
2022/09/15 01:19:31;;;;;;;5.45;4.10;;;13.50;99.90;;;;;;5066671;28;20083;-73
2022/09/15 01:22:11;;;;;;;5.38;4.50;;;13.60;99.90;;;;;;5062276;28;20044;-73
2022/09/15 01:24:42;;;;;;;5.60;4.68;;;13.50;99.90;;;;;;5068611;28;20162;-73
2022/09/15 01:27:15;;;;;;;4.68;4.20;;;13.50;99.90;;;;;;5060729;28;20052;-73
2022/09/15 01:29:59;;;;;;;6.85;4.82;;;13.50;99.90;;;;;;5064103;28;20048;-73
2022/09/15 01:33:11;;;;;;;5.93;4.60;;;13.50;99.90;;;;;;5062954;28;20459;-71
2022/09/15 01:35:48;;;;;;;9.30;5.00;;;13.50;99.90;;;;;;5062691;28;20047;-73
2022/09/15 01:38:52;;;;;;;5.78;4.72;;;13.50;99.90;;;;;;5063098;28;20127;-73
2022/09/15 01:41:26;;;;;;;5.60;5.10;;;13.50;99.90;;;;;;5066249;28;20068;-73
2022/09/15 01:44:08;;;;;;;6.68;4.55;;;13.50;99.90;;;;;;5077411;28;20136;-76
2022/09/15 01:46:45;;;;;;;4.72;4.32;;;13.50;99.90;;;;;;5071814;28;20087;-77
2022/09/15 01:49:14;;;;;;;;;;;13.50;99.90;;;;;;5068666;28;20080;-76
2022/09/15 01:51:42;;;;;;;7.50;4.22;;;13.50;99.90;;;;;;5088981;28;19920;-76
2022/09/15 01:54:09;;;;;;;6.25;4.20;;;13.50;99.90;;;;;;5072839;28;20119;-76
2022/09/15 01:56:37;;;;;;;7.00;4.65;;;13.50;99.90;;;;;;5053509;28;20044;-75
2022/09/15 01:59:02;;;;;;;6.38;4.78;;;13.50;99.90;;;;;;5085752;28;20836;-75
2022/09/15 02:01:48;;;;;;;7.60;4.47;;;13.50;99.90;;;;;;5087687;28;20116;-75
2022/09/15 02:04:26;;;;;;;6.22;4.40;;;13.50;99.90;;;;;;5074352;28;20119;-76
2022/09/15 02:07:34;;;;;;;6.70;4.50;;;13.50;99.90;;;;;;5069878;28;20036;-76
2022/09/15 02:10:31;;;;;;;4.53;3.88;;;13.50;99.90;;;;;;5087051;28;20083;-75
2022/09/15 02:13:05;;;;;;;7.75;3.95;;;13.60;99.90;;;;;;5071267;28;20083;-76
2022/09/15 02:15:41;;;;;;;6.65;3.53;;;13.60;99.90;;;;;;5090249;28;20441;-76
2022/09/15 02:18:09;;;;;;;4.57;3.58;;;13.60;99.90;;;;;;5087679;28;20455;-76
2022/09/15 02:20:57;;;;;;;4.95;3.67;;;13.60;99.90;;;;;;5066035;28;20076;-76
2022/09/15 02:23:27;;;;;;;6.35;3.30;;;13.60;99.90;;;;;;5085532;28;20040;-75
2022/09/15 02:26:00;;;;;;;5.43;3.58;;;13.60;99.90;;;;;;5083065;28;20051;-74
2022/09/15 02:28:30;;;;;;;6.65;3.53;;;13.60;99.90;;;;;;5063438;28;20155;-74
2022/09/15 02:30:57;;;;;;;3.60;3.20;;;13.60;99.90;;;;;;5082047;28;20515;-75
2022/09/15 02:33:28;;;;;;;4.15;3.08;;;13.60;99.90;;;;;;5082120;28;20127;-75
2022/09/15 02:35:54;;;;;;;5.75;3.38;;;13.60;99.90;;;;;;5086852;28;20048;-75
2022/09/15 02:38:20;;;;;;;5.13;3.30;;;13.60;99.90;;;;;;5079173;28;20067;-75
2022/09/15 02:40:47;;;;;;;5.28;3.30;;;13.60;99.90;;;;;;5083045;28;20039;-75
2022/09/15 02:43:16;;;;;;;7.93;3.08;;;13.60;99.90;;;;;;5081507;28;20052;-75
2022/09/15 02:45:42;;;;;;;3.90;3.00;;;13.60;99.90;;;;;;5082002;28;20128;-75
2022/09/15 02:48:08;;;;;;;9.63;2.90;;;13.70;99.90;;;;;;5082379;28;20506;-75
2022/09/15 02:50:35;;;;;;;7.25;2.75;;;13.60;99.90;;;;;;5082724;28;21469;-75
2022/09/15 02:53:02;;;;;;;6.13;3.23;;;13.60;99.90;;;;;;5083638;28;20048;-71
2022/09/15 02:55:27;;;;;;;4.80;3.17;;;13.60;99.90;;;;;;5083836;28;20415;-75
2022/09/15 02:57:57;;;;;;;5.97;3.35;;;13.60;99.90;;;;;;5088893;28;20238;-73
2022/09/15 03:00:23;;;;;;;6.03;3.33;;;13.60;99.90;;;;;;5084167;28;20040;-74
2022/09/15 03:02:51;;;;;;;6.60;3.08;;;13.60;99.90;;;;;;5085176;28;20562;-74
2022/09/15 03:05:28;;;;;;;3.72;3.25;;;13.60;99.90;;;;;;5085843;28;20063;-73
2022/09/15 03:07:54;;;;;;;6.38;3.72;;;13.70;99.90;;;;;;5075330;28;20498;-74
2022/09/15 03:10:22;;;;;;;5.43;3.28;;;13.70;99.90;;;;;;5084842;28;20169;-75
2022/09/15 03:12:51;;;;;;;6.35;3.50;;;13.60;99.90;;;;;;5085738;28;20040;-74
2022/09/15 03:15:20;;;;;;;8.75;4.20;;;13.60;99.90;;;;;;5083987;28;20510;-74
2022/09/15 03:17:46;;;;;;;4.53;3.25;;;13.60;99.90;;;;;;5085505;28;20111;-75
2022/09/15 03:20:15;;;;;;;6.22;3.65;;;13.60;99.90;;;;;;5082751;28;20032;-75
2022/09/15 03:22:41;;;;;;;7.40;3.60;;;13.60;99.90;;;;;;5085104;28;20176;-75
2022/09/15 03:25:08;;;;;;;8.32;3.38;;;13.60;99.90;;;;;;5083068;28;20119;-74
2022/09/15 03:27:35;;;;;;;6.18;3.03;;;13.60;99.90;;;;;;5080412;28;20108;-74
2022/09/15 03:30:01;;;;;;;4.95;3.10;;;13.70;99.90;;;;;;5080177;28;20046;-74
2022/09/15 03:32:26;;;;;;;5.05;3.17;;;13.70;99.90;;;;;;5082879;28;20397;-74
2022/09/15 03:34:52;;;;;;;6.50;3.15;;;13.60;99.90;;;;;;5084477;28;20047;-75
2022/09/15 03:37:18;;;;;;;10.68;3.55;;;13.70;99.90;;;;;;5080948;28;20028;-74
2022/09/15 03:39:44;;;;;;;7.28;3.70;;;13.70;99.90;;;;;;5085912;28;20044;-74
2022/09/15 03:42:10;;;;;;;5.05;3.67;;;13.70;99.90;;;;;;5081234;28;20044;-74
2022/09/15 03:44:35;;;;;;;6.13;3.20;;;13.70;99.90;;;;;;5083819;28;20952;-74
2022/09/15 03:47:02;;;;;;;5.88;3.30;;;13.70;99.90;;;;;;5083718;28;20149;-75
2022/09/15 03:49:28;;;;;;;5.43;3.10;;;13.70;99.90;;;;;;5079939;28;20040;-73
2022/09/15 03:51:54;;;;;;;8.57;3.63;;;13.70;99.90;;;;;;5064550;28;20070;-73
2022/09/15 03:54:19;;;;;;;5.22;2.70;;;13.70;99.90;;;;;;5083958;28;20044;-73
2022/09/15 03:56:47;;;;;;;6.47;2.70;;;13.70;99.90;;;;;;5083365;28;20046;-73
2022/09/15 03:59:14;;;;;;;;;;;13.60;99.90;;;;;;5081785;28;20040;-73
2022/09/15 04:01:40;;;;;;;5.80;3.13;;;13.60;99.90;;;;;;5083606;28;19919;-72
2022/09/15 04:04:06;;;;;;;4.43;2.80;;;13.60;99.90;;;;;;5081412;28;20044;-73
2022/09/15 04:06:31;;;;;;;5.63;3.35;;;13.60;99.90;;;;;;5082279;28;20045;-73
2022/09/15 04:08:59;;;;;;;8.75;3.40;;;13.60;99.90;;;;;;5082759;28;20475;-73
2022/09/15 04:11:24;;;;;;;4.70;2.93;;;13.60;99.90;;;;;;5085444;28;20378;-73
2022/09/15 04:13:51;;;;;;;4.40;3.08;;;13.60;99.90;;;;;;5086236;28;20298;-73
2022/09/15 04:16:19;;;;;;;7.00;2.90;;;13.60;99.90;;;;;;5083710;28;20062;-73
2022/09/15 04:18:45;;;;;;;6.75;3.22;;;13.60;99.90;;;;;;5083009;28;20120;-73
2022/09/15 04:21:13;;;;;;;4.57;2.38;;;13.60;99.90;;;;;;5061846;28;20453;-75
2022/09/15 04:23:39;;;;;;;4.72;2.58;;;13.60;99.90;;;;;;5067696;28;20040;-75
2022/09/15 04:26:10;;;;;;;6.60;2.80;;;13.60;99.90;;;;;;5085020;28;20032;-75
2022/09/15 04:28:36;;;;;;;3.10;2.63;;;13.60;99.90;;;;;;5087847;28;20490;-75
2022/09/15 04:31:08;;;;;;;4.22;2.60;;;13.60;99.90;;;;;;5082003;28;20040;-76
2022/09/15 04:33:35;;;;;;;7.10;2.80;;;13.60;99.90;;;;;;5082878;28;20070;-74
2022/09/15 04:36:03;;;;;;;4.47;2.33;;;13.60;99.90;;;;;;5087915;28;20115;-73
2022/09/15 04:38:28;;;;;;;5.43;2.28;;;13.60;99.90;;;;;;5088905;28;20478;-73
2022/09/15 04:40:54;;;;;;;6.05;2.30;;;13.60;99.90;;;;;;5090461;28;20044;-73
2022/09/15 04:43:20;;;;;;;7.60;2.30;;;13.60;99.90;;;;;;5087356;28;20098;-74
2022/09/15 04:45:47;;;;;;;5.65;2.10;;;13.60;99.90;;;;;;5089137;28;20048;-73
2022/09/15 04:48:13;;;;;;;5.25;2.13;;;13.60;99.90;;;;;;5083808;28;20043;-71
2022/09/15 04:50:39;;;;;;;6.68;2.30;;;13.60;99.90;;;;;;5089568;28;20489;-72
2022/09/15 04:53:05;;;;;;;6.15;2.47;;;13.60;99.90;;;;;;5083889;28;20044;-71
2022/09/15 04:55:32;;;;;;;6.30;1.92;;;13.70;99.90;;;;;;5088283;28;20040;-73
2022/09/15 04:57:58;;;;;;;8.98;1.95;;;13.70;99.90;;;;;;5085087;28;20047;-72
2022/09/15 05:00:25;;;;;;;4.03;1.65;;;13.70;99.90;;;;;;5086814;28;20044;-73
2022/09/15 05:02:50;;;;;;;7.75;2.58;;;13.70;99.90;;;;;;5087663;28;20098;-73
2022/09/15 05:05:16;;;;;;;5.30;1.95;;;13.70;99.90;;;;;;5052779;28;20040;-73
2022/09/15 05:07:42;;;;;;;7.75;2.10;;;13.70;99.90;;;;;;5084452;28;20465;-72
2022/09/15 05:10:07;;;;;;;7.10;1.73;;;13.70;99.90;;;;;;5082287;28;20043;-72
2022/09/15 05:12:33;;;;;;;4.40;1.63;;;13.70;99.90;;;;;;5085800;28;20533;-72
2022/09/15 05:14:58;;;;;;;4.57;1.55;;;13.70;99.90;;;;;;5067874;28;20040;-72
2022/09/15 05:17:24;;;;;;;6.03;1.80;;;13.70;99.90;;;;;;5085829;28;20040;-75
2022/09/15 05:19:50;;;;;;;6.28;1.65;;;13.60;99.90;;;;;;5087321;28;20407;-77
2022/09/15 05:22:15;;;;;;;5.53;2.00;;;13.60;99.90;;;;;;5068660;28;20047;-77
2022/09/15 05:24:41;;;;;;;4.90;1.48;;;13.60;99.90;;;;;;5088253;28;20049;-76
2022/09/15 05:27:06;;;;;;;7.32;2.15;;;13.60;99.90;;;;;;5081441;28;20040;-76
2022/09/15 05:29:32;;;;;;;5.75;2.17;;;13.60;99.90;;;;;;5066664;28;20043;-76
2022/09/15 05:31:58;;;;;;;6.63;2.20;;;13.60;99.90;;;;;;5085236;28;20035;-76
2022/09/15 05:34:23;;;;;;;7.30;1.85;;;13.60;99.90;;;;;;5086385;28;20052;-75
2022/09/15 05:36:49;;;;;;;4.07;1.98;;;13.60;99.90;;;;;;5086749;28;20040;-75
2022/09/15 05:39:14;;;;;;;6.60;1.67;;;13.70;99.90;;;;;;5083352;28;20699;-74
2022/09/15 05:41:40;;;;;;;5.82;1.80;;;13.70;99.90;;;;;;5085566;28;20089;-75
2022/09/15 05:44:05;;;;;;;5.20;2.00;;;13.70;99.90;;;;;;5076980;28;20141;-75
2022/09/15 05:46:31;;;;;;;6.80;2.30;;;13.80;99.90;;;;;;5082352;28;20757;-74
2022/09/15 05:48:57;;;;;;;6.78;2.22;;;13.80;99.90;;;;;;5086325;28;20071;-75
2022/09/15 05:51:23;;;;;;;5.78;2.08;;;13.80;99.90;;;;;;5082857;28;20047;-75
2022/09/15 05:53:49;;;;;;;8.60;2.53;;;13.90;99.90;;;;;;5083114;28;20032;-74
2022/09/15 05:56:16;;;;;;;6.18;2.20;;;13.90;99.90;;;;;;5085112;28;20048;-74
2022/09/15 05:58:44;;;;;;;7.35;2.30;;;14.00;99.90;;;;;;5069703;28;20043;-74
2022/09/15 06:01:18;;;;;;;7.90;2.47;;;14.00;99.90;;;;;;5080869;28;20373;-73
2022/09/15 06:03:45;;;;;;;6.75;2.55;;;14.00;99.90;;;;;;5082181;28;20062;-73
2022/09/15 06:06:11;;;;;;;6.80;2.05;;;14.10;99.90;;;;;;5083284;28;20036;-73
2022/09/15 06:08:39;;;;;;;5.93;1.60;;;14.00;99.90;;;;;;5080535;28;20036;-73
2022/09/15 06:11:08;;;;;;;5.13;1.80;;;14.10;99.90;;;;;;5083242;28;20502;-74
2022/09/15 06:13:34;;;;;;;5.10;1.67;;;14.10;99.90;;;;;;5081748;28;20043;-74
2022/09/15 06:16:11;;;;;;;6.38;1.90;;;14.10;99.90;;;;;;5082212;28;20032;-73
2022/09/15 06:18:38;;;;;;;4.83;1.80;;;14.20;99.90;;;;;;5084285;28;20181;-73
2022/09/15 06:21:06;;;;;;;6.73;2.17;;;14.20;99.90;;;;;;5077837;28;20051;-72
2022/09/15 06:23:31;;;;;;;9.23;2.45;;;14.20;99.90;;;;;;5084757;28;20053;-74
2022/09/15 06:26:04;;;;;;;6.30;2.35;;;14.20;99.90;;;;;;5067358;28;20040;-74
2022/09/15 06:28:29;;;;;;;7.68;2.03;;;14.30;99.90;;;;;;5065407;28;20502;-75
2022/09/15 06:30:55;;;;;;;6.85;1.75;;;14.30;99.90;;;;;;5082997;28;20040;-75
2022/09/15 06:33:20;;;;;;;6.15;2.42;;;14.40;99.90;;;;;;5069708;28;20060;-74
2022/09/15 06:35:46;;;;;;;4.35;1.85;;;14.40;99.90;;;;;;5087255;28;20402;-74
2022/09/15 06:38:12;;;;;;;5.68;1.70;;;14.50;99.90;;;;;;5080662;28;20100;-74
2022/09/15 06:40:37;;;;;;;8.23;1.42;;;14.70;99.90;;;;;;5085807;28;20612;-74
2022/09/15 06:43:03;;;;;;;5.15;1.52;;;14.90;99.90;;;;;;5085229;28;20131;-72
2022/09/15 06:45:29;;;;;;;8.07;1.33;;;15.10;99.90;;;;;;5087564;28;20044;-74
2022/09/15 06:47:55;;;;;;;6.30;1.75;;;15.30;99.90;;;;;;5084865;28;20048;-74
2022/09/15 06:50:20;;;;;;;4.80;1.50;;;15.50;99.90;;;;;;5085549;28;20032;-74
2022/09/15 06:52:46;;;;;;;7.32;1.88;;;15.60;99.90;;;;;;5050416;28;20051;-74
2022/09/15 06:55:12;;;;;;;5.28;1.40;;;15.70;99.90;;;;;;5045756;28;20040;-74
2022/09/15 06:57:37;;;;;;;6.28;2.55;;;15.80;99.90;;;;;;5081117;28;20082;-73
2022/09/15 07:00:05;;;;;;;5.65;1.50;;;15.90;99.90;;;;;;5081968;28;20048;-72
2022/09/15 07:02:30;;;;;;;5.40;1.25;;;15.90;99.90;;;;;;5086386;28;20118;-71
2022/09/15 07:04:56;;;;;;;6.25;1.52;;;15.90;99.90;;;;;;5085067;28;20123;-71
2022/09/15 07:07:22;;;;;;;9.35;1.52;;;16.00;99.90;;;;;;5082474;28;20032;-72
2022/09/15 07:09:47;;;;;;;6.05;1.65;;;16.00;99.90;;;;;;5081261;28;20840;-73
2022/09/15 07:12:13;;;;;;;5.30;1.25;;;16.00;99.90;;;;;;5084629;28;20044;-73
2022/09/15 07:14:38;;;;;;;4.93;1.48;;;16.10;99.90;;;;;;5085156;28;20067;-73
2022/09/15 07:17:04;;;;;;;5.13;1.38;;;16.10;99.90;;;;;;5080635;28;20052;-73
2022/09/15 07:19:29;;;;;;;6.38;1.08;;;16.30;99.90;;;;;;5086339;28;20123;-72
2022/09/15 07:21:55;;;;;;;7.43;1.70;;;16.40;99.90;;;;;;5082500;28;20040;-73
2022/09/15 07:24:21;;;;;;;5.22;1.30;;;16.50;99.90;;;;;;5082617;28;20047;-72
2022/09/15 07:26:46;;;;;;;8.77;1.27;;;16.60;99.90;;;;;;5083385;28;20044;-73
2022/09/15 07:29:12;;;;;;;4.88;1.33;;;16.70;99.90;;;;;;5084073;28;20080;-75
2022/09/15 07:31:38;;;;;;;6.20;1.45;;;16.70;99.90;;;;;;5084261;28;20497;-74
2022/09/15 07:34:05;;;;;;;5.80;1.20;;;16.70;99.90;;;;;;5086695;28;20048;-73
2022/09/15 07:36:30;;;;;;;8.45;1.23;;;16.70;99.90;;;;;;5084488;28;20043;-74
2022/09/15 07:38:57;;;;;;;8.60;1.55;;;16.70;99.90;;;;;;5081528;28;20471;-74
2022/09/15 07:41:25;;;;;;;7.50;1.70;;;16.70;99.90;;;;;;5085222;28;20036;-70
2022/09/15 07:43:53;;;;;;;5.28;1.27;;;16.80;99.90;;;;;;5080344;28;20044;-72
2022/09/15 07:46:20;;;;;;;5.60;1.50;;;16.80;99.90;;;;;;5083428;28;20143;-71
2022/09/15 07:48:48;;;;;;;4.72;1.60;;;16.90;99.90;;;;;;5062445;28;20123;-74
2022/09/15 07:51:14;;;;;;;6.88;1.92;;;16.90;99.90;;;;;;5084758;28;20056;-71
2022/09/15 07:53:42;;;;;;;6.47;1.40;;;17.00;99.90;;;;;;5087159;28;20123;-71
2022/09/15 07:56:08;;;;;;;5.63;1.50;;;17.00;99.90;;;;;;5086339;28;20394;-73
2022/09/15 07:58:33;;;;;;;8.63;2.20;;;17.00;99.90;;;;;;5083799;28;20471;-71
2022/09/15 08:01:04;;;;;;;4.63;1.30;;;17.20;99.90;;;;;;5081916;28;20043;-72
2022/09/15 08:03:30;;;;;;;5.93;1.35;;;17.30;99.90;;;;;;5085158;28;20509;-72
2022/09/15 08:05:57;;;;;;;7.35;1.75;;;17.40;99.90;;;;;;5093453;28;20083;-73
2022/09/15 08:08:23;;;;;;;5.78;1.52;;;17.40;99.90;;;;;;5094154;28;20036;-70
2022/09/15 08:10:49;;;;;;;9.25;1.48;;;17.40;99.90;;;;;;5090096;28;20045;-69
2022/09/15 08:13:14;;;;;;;7.13;1.60;;;17.60;99.90;;;;;;5085044;28;20501;-70
2022/09/15 08:15:40;;;;;;;5.38;1.58;;;17.60;99.90;;;;;;5088858;28;20032;-69
2022/09/15 08:18:05;;;;;;;6.47;1.17;;;17.60;99.90;;;;;;5091255;28;20048;-69
2022/09/15 08:20:32;;;;;;;7.35;2.10;;;17.60;99.90;;;;;;5088388;28;20113;-69
2022/09/15 08:22:58;;;;;;;5.88;1.63;;;17.70;99.90;;;;;;5090267;28;20502;-70
2022/09/15 08:25:24;;;;;;;6.88;2.00;;;17.80;99.90;;;;;;5093018;28;20495;-70
2022/09/15 08:27:52;;;;;;;9.25;2.53;;;17.80;99.90;;;;;;5090084;28;20046;-71
2022/09/15 08:30:19;;;;;;;8.25;2.42;;;18.00;99.90;;;;;;5088667;28;20047;-69
2022/09/15 08:32:45;;;;;;;9.05;3.10;;;18.20;99.90;;;;;;5086901;28;20101;-71
2022/09/15 08:35:11;;;;;;;9.45;2.90;;;18.50;99.90;;;;;;5085898;28;20045;-70
2022/09/15 08:37:36;;;;;;;8.77;2.30;;;18.70;99.90;;;;;;5093068;28;20032;-70
2022/09/15 08:40:02;;;;;;;5.40;1.77;;;18.80;99.90;;;;;;5088529;28;20044;-70
2022/09/15 08:42:29;;;;;;;8.23;1.90;;;18.90;99.90;;;;;;5087772;28;20064;-70
2022/09/15 08:45:04;;;;;;;8.27;2.53;;;18.80;99.90;;;;;;5087395;28;20044;-71
2022/09/15 08:47:45;;;;;;;6.72;2.10;;;18.90;99.90;;;;;;5089046;28;20063;-70
2022/09/15 08:50:40;;;;;;;9.82;2.22;;;18.80;99.90;;;;;;5089353;28;20405;-70
2022/09/15 08:53:13;;;;;;;6.18;1.60;;;18.70;99.90;;;;;;5084283;28;20505;-70
2022/09/15 08:55:48;;;;;;;9.05;1.95;;;18.70;99.90;;;;;;5091082;28;20049;-72
2022/09/15 08:58:20;;;;;;;13.77;2.80;;;18.90;99.90;;;;;;5090121;28;20048;-70
2022/09/15 09:00:50;;;;;;;7.50;2.95;;;19.30;99.90;;;;;;5088183;28;20076;-70
2022/09/15 09:03:37;;;;;;;8.98;2.50;;;19.70;99.90;;;;;;5088166;28;20493;-70
2022/09/15 09:06:21;;;;;;;;;;;19.50;99.90;;;;;;5087201;28;20031;-69
2022/09/15 09:09:08;;;;;;;9.38;2.10;;;19.40;99.90;;;;;;5071780;28;20894;-70
2022/09/15 09:11:34;;;;;;;;;;;19.30;99.90;;;;;;5088074;28;20044;-71
2022/09/15 09:14:31;;;;;;;7.45;1.75;;;19.40;99.90;;;;;;5088126;28;19920;-70
2022/09/15 09:17:16;;;;;;;3.80;1.10;;;19.70;99.90;;;;;;5086293;28;20032;-70
2022/09/15 09:20:04;;;;;;;4.88;1.20;;;19.50;99.90;;;;;;5091480;28;20044;-68
2022/09/15 09:22:38;;;;;;;6.25;1.17;;;19.30;99.90;;;;;;5087477;28;20064;-70
2022/09/15 09:25:04;;;;;;;3.08;0.90;;;19.30;99.90;;;;;;5084555;28;20044;-69
2022/09/15 09:27:33;;;;;;;4.70;1.20;;;19.20;99.90;;;;;;5084978;28;20395;-69
2022/09/15 09:30:11;;;;;;;6.07;1.00;;;19.20;99.90;;;;;;5084958;28;20666;-72
2022/09/15 09:32:43;;;;;;;;;;;19.00;99.90;;;;;;5082881;28;20071;-70
2022/09/15 09:35:23;;;;;;;2.33;0.90;;;18.80;99.90;;;;;;5080707;28;19927;-69
2022/09/15 09:37:52;;;;;;;3.05;1.00;;;18.50;99.90;;;;;;5086021;28;20040;-69
2022/09/15 09:40:18;;;;;;;4.15;1.02;;;18.40;99.90;;;;;;5085471;28;20055;-68
2022/09/15 09:42:44;;;;;;;4.80;1.00;;;18.20;99.90;;;;;;5083695;28;20044;-69
2022/09/15 09:45:13;;;;;;;4.78;0.90;;;18.40;99.90;;;;;;5081665;28;20503;-70
2022/09/15 09:47:40;;;;;;;6.90;1.10;;;18.70;99.90;;;;;;5082609;28;20452;-69
2022/09/15 09:50:31;;;;;;;3.20;0.95;;;18.90;99.90;;;;;;5086530;28;20493;-69
2022/09/15 09:52:57;;;;;;;4.65;1.10;;;19.00;99.90;;;;;;5086163;28;20487;-69
2022/09/15 09:55:26;;;;;;;2.88;0.75;;;19.20;99.90;;;;;;5080298;28;20047;-70
2022/09/15 09:57:51;;;;;;;3.20;1.00;;;19.30;99.90;;;;;;5081915;28;20040;-69
2022/09/15 10:00:31;;;;;;;5.25;1.10;;;19.40;99.90;;;;;;5086108;28;20052;-71
2022/09/15 10:02:57;;;;;;;3.90;0.80;;;19.50;99.90;;;;;;5087142;28;20051;-69
2022/09/15 10:05:23;;;;;;;3.80;0.75;;;19.90;99.90;;;;;;5083546;28;20395;-69
2022/09/15 10:07:49;;;;;;;2.58;0.82;;;19.90;99.90;;;;;;5085657;28;20185;-71
2022/09/15 10:10:21;;;;;;;4.90;1.17;;;20.10;99.90;;;;;;5089010;28;20099;-70
2022/09/15 10:12:48;;;;;;;5.45;0.90;;;20.30;99.90;;;;;;5085070;28;20429;-70
2022/09/15 10:15:26;;;;;;;7.03;1.17;;;20.60;99.90;;;;;;5085153;28;20137;-70
2022/09/15 10:17:54;;;;;;;4.18;0.80;;;21.00;99.90;;;;;;5083906;28;20316;-71
2022/09/15 10:20:24;;;;;;;8.27;1.10;;;20.80;99.90;;;;;;5085454;28;20047;-71
2022/09/15 10:22:50;;;;;;;3.00;0.80;;;20.70;99.70;;;;;;5081851;28;20044;-72
2022/09/15 10:25:19;;;;;;;2.90;0.85;;;20.50;99.90;;;;;;5085593;28;20044;-71
2022/09/15 10:28:01;;;;;;;5.85;1.20;;;20.40;99.90;;;;;;5086224;28;20423;-71
2022/09/15 10:30:27;;;;;;;3.53;1.30;;;20.30;99.90;;;;;;5085844;28;20048;-72
2022/09/15 10:32:52;;;;;;;4.88;0.95;;;20.40;99.90;;;;;;5083783;28;20032;-74
2022/09/15 10:35:19;;;;;;;5.47;1.13;;;20.60;99.90;;;;;;5087472;28;20031;-74
2022/09/15 10:38:32;;;;;;;3.88;0.90;;;20.60;99.90;;;;;;5086212;28;20082;-73
2022/09/15 10:41:25;;;;;;;4.85;1.00;;;20.30;99.00;;;;;;4968706;28;20043;-73
2022/09/15 10:44:16;;;;;;;4.95;0.80;;;20.30;99.20;;;;;;4952400;28;20525;-73
2022/09/15 10:47:14;;;;;;;1.92;0.50;;;20.10;99.30;;;;;;4970444;28;21663;-73
2022/09/15 10:49:55;;;;;;;4.50;0.70;;;20.10;99.50;;;;;;4951559;28;20873;-73
2022/09/15 10:52:29;;;;;;;4.45;0.90;;;20.10;99.40;;;;;;4969270;28;20058;-73
2022/09/15 10:55:06;;;;;;;2.58;0.90;;;20.10;99.90;;;;;;4971872;28;20178;-73
2022/09/15 10:57:48;;;;;;;8.35;0.60;;;20.30;99.90;;;;;;4967706;28;22034;-74
2022/09/15 11:00:22;;;;;;;3.55;1.02;;;20.20;98.90;;;;;;4967275;28;20081;-74
2022/09/15 11:03:10;;;;;;;2.55;0.95;;;20.00;99.60;;;;;;4973782;28;20051;-74
2022/09/15 11:06:23;;;;;;;2.00;0.75;;;19.80;99.30;;;;;;4972627;28;20089;-72
2022/09/15 11:09:07;;;;;;;7.32;0.98;;;19.60;99.70;;;;;;4966022;28;20058;-71
2022/09/15 11:11:54;;;;;;;3.75;0.98;;;19.60;99.90;;;;;;5008054;28;20052;-71
2022/09/15 11:14:25;;;;;;;4.57;0.88;;;19.80;99.90;;;;;;5050466;28;20053;-72
2022/09/15 11:17:00;;;;;;;5.15;0.70;;;19.70;98.50;;;;;;5049902;28;20048;-71
2022/09/15 11:20:06;;;;;;;3.58;0.70;;;19.70;98.70;;;;;;5057396;28;20064;-72
2022/09/15 11:22:38;;;;;;;1.73;0.70;;;19.80;98.10;;;;;;5057755;28;20072;-71
2022/09/15 11:25:23;;;;;;;4.40;0.88;;;19.80;99.10;;;;;;5051703;28;20052;-72
2022/09/15 11:27:55;;;;;;;3.08;0.80;;;19.80;98.40;;;;;;5046873;28;20045;-71
2022/09/15 11:30:24;;;;;;;3.55;0.65;;;19.90;99.60;;;;;;5052770;28;20049;-71
2022/09/15 11:33:01;;;;;;;2.72;0.75;;;20.10;99.10;;;;;;5053287;28;20044;-71
2022/09/15 11:35:33;;;;;;;;;;;20.10;99.40;;;;;;5055923;28;20094;-71
2022/09/15 11:38:18;;;;;;;3.83;0.77;;;20.30;99.70;;;;;;5049457;28;19960;-71
2022/09/15 11:40:50;;;;;;;3.45;0.60;;;20.50;99.90;;;;;;5047741;28;20071;-71
2022/09/15 11:43:44;;;;;;;1.77;0.70;;;20.60;99.00;;;;;;5066818;28;20052;-71
2022/09/15 11:46:17;;;;;;;2.22;0.63;;;21.10;98.60;;;;;;5093339;28;20062;-71
2022/09/15 11:48:58;;;;;;;3.58;0.70;;;21.40;97.50;;;;;;5093947;28;20036;-71
2022/09/15 11:51:27;;;;;;;6.40;0.82;;;21.70;97.60;;;;;;5094410;28;20044;-72
2022/09/15 11:54:03;;;;;;;3.17;0.65;;;20.30;95.90;;;;;;5093186;28;20032;-71
2022/09/15 11:56:46;;;;;;;3.83;0.90;;;21.70;96.40;;;;;;5089603;28;20506;-71
2022/09/15 11:59:11;;;;;;;2.75;0.80;;;21.30;95.60;;;;;;5072340;28;20040;-71
2022/09/15 12:02:15;;;;;;;4.07;0.75;;;20.80;96.20;;;;;;5090442;28;20105;-71
2022/09/15 12:04:57;;;;;;;2.83;0.80;;;20.40;96.60;;;;;;5077140;28;20439;-72
2022/09/15 12:07:29;;;;;;;1.95;0.65;;;19.40;99.50;;;;;;5092012;28;20435;-72
2022/09/15 12:10:13;;;;;;;5.13;1.35;;;18.50;99.90;;;;;;5095254;28;20044;-71
2022/09/15 12:12:40;;;;;;;6.03;1.52;;;18.30;99.90;;;;;;5089221;28;20039;-70
2022/09/15 12:15:12;;;;;;;;;;;18.10;99.90;;;;;;5068193;28;20044;-69
2022/09/15 12:17:51;;;;;;;6.00;1.58;;;18.00;99.90;;;;;;5085093;28;19920;-69
2022/09/15 12:20:52;;;;;;;4.95;1.83;;;17.90;99.90;;;;;;5068821;28;20401;-70
2022/09/15 12:23:39;;;;;;;6.57;1.50;;;17.90;99.90;;;;;;5063055;28;20501;-70
2022/09/15 12:26:14;;;;;;;3.65;1.27;;;17.90;99.90;;;;;;5067251;28;20127;-70
2022/09/15 12:28:45;;;;;;;3.97;1.33;;;17.80;99.90;;;;;;5086820;28;20410;-70
2022/09/15 12:31:22;;;;;;;3.53;1.30;;;17.80;99.90;;;;;;5089152;28;20398;-72
2022/09/15 12:34:25;;;;;;;7.13;1.57;;;18.20;99.90;;;;;;5089205;28;20040;-72
2022/09/15 12:36:53;;;;;;;4.20;1.50;;;18.40;99.90;;;;;;5083896;28;20792;-72
2022/09/15 12:39:29;;;;;;;4.05;1.10;;;18.60;99.90;;;;;;5087813;28;20051;-72
2022/09/15 12:42:03;;;;;;;2.45;0.90;;;18.20;99.90;;;;;;5085907;28;20138;-72
2022/09/15 12:44:38;;;;;;;3.50;1.00;;;18.10;99.90;;;;;;5094014;28;20055;-72
2022/09/15 12:47:39;;;;;;;3.63;1.00;;;18.00;99.90;;;;;;5089189;28;20074;-72
2022/09/15 12:50:41;;;;;;;3.15;0.80;;;18.20;99.90;;;;;;5086599;28;20093;-74
2022/09/15 12:53:49;;;;;;;6.93;1.27;;;17.90;99.90;;;;;;5085228;28;20040;-74
2022/09/15 12:56:35;;;;;;;4.97;1.33;;;17.90;99.90;;;;;;5018720;28;20060;-70
2022/09/15 12:59:14;;;;;;;4.13;1.40;;;18.00;99.90;;;;;;5086785;28;20041;-70
2022/09/15 13:01:49;;;;;;;4.13;1.40;;;18.10;99.90;;;;;;5085321;28;20036;-71
2022/09/15 13:04:40;;;;;;;4.10;1.50;;;18.00;99.90;;;;;;5090271;28;20075;-73
2022/09/15 13:07:16;;;;;;;3.38;1.08;;;17.70;99.90;;;;;;5091737;28;20048;-76
2022/09/15 13:10:15;;;;;;;4.80;1.40;;;17.90;99.90;;;;;;5086084;28;20072;-74
2022/09/15 13:12:50;;;;;;;4.07;1.63;;;18.00;99.90;;;;;;5090784;28;20042;-72